Latest Weather Observations for Mount Isa

IDQ60801

Issued at 8:05 pm EST Tuesday 21 October 2014 (issued every 30 minutes, with the page automatically refreshed every 10 minutes)

About weather observations | Map of weather stations | Latest weather observations for QLD | Other Formats
Station Details ID: 029127 Name: MOUNT ISA AERO Lat: -20.68 Lon: 139.49 Height: 340.3 m
Data from the previous 72 hours. | See also: Recent months at Mount Isa
Date/Time
EST
Temp
°C
App
Temp
°C
Dew
Point
Rel
Hum
%
Delta-T
°C
Wind Press
QNH
hPa
Press
MSL
hPa
Rain
since 9 am
mm
Dir
 
Spd
km/h
Gust
km/h
Spd
kts
Gust
kts
21/08:00pm 28.8 25.7 3.6 20 12.9 ESE 9 11 5 6 1017.0 - 0.0
21/07:30pm 30.1 26.3 1.6 16 14.2 E 11 15 6 8 1016.6 - 0.0
21/07:00pm 31.0 27.4 2.9 16 14.4 ESE 11 19 6 10 1016.3 - 0.0
21/06:30pm 31.9 27.7 1.9 15 15.2 ESE 13 19 7 10 1016.0 - 0.0
21/06:00pm 33.0 28.1 -0.3 12 16.4 E 15 20 8 11 1015.8 1013.8 0.0
21/05:30pm 33.5 27.8 0.6 12 16.5 ENE 20 26 11 14 1015.6 - 0.0
21/05:00pm 33.6 29.7 1.3 13 16.4 ENE 11 19 6 10 1015.4 - 0.0
21/04:30pm 33.9 28.9 1.6 13 16.5 SE 17 28 9 15 1015.5 - 0.0
21/04:00pm 33.8 29.5 1.3 12 16.5 SE 13 17 7 9 1015.5 - 0.0
21/03:30pm 33.8 28.4 1.3 12 16.5 NNE 19 26 10 14 1015.7 - 0.0
21/03:00pm 34.0 29.7 3.0 14 16.2 SSE 15 26 8 14 1016.0 1014.0 0.0
21/02:30pm 33.5 28.9 1.4 13 16.3 ESE 15 28 8 15 1016.5 - 0.0
21/02:00pm 32.9 28.5 2.7 15 15.6 E 15 24 8 13 1016.9 - 0.0
21/01:30pm 32.9 28.6 3.1 15 15.5 ENE 15 20 8 11 1017.5 - 0.0
21/01:00pm 31.9 27.8 4.1 17 14.6 NE 15 30 8 16 1018.1 - 0.0
21/12:30pm 32.3 28.5 3.9 16 14.9 ENE 13 24 7 13 1018.8 - 0.0
21/12:00pm 31.1 25.9 5.5 20 13.7 E 22 30 12 16 1019.3 1017.4 0.0
21/11:30am 31.5 26.7 5.6 19 13.9 NE 20 30 11 16 1019.9 - 0.0
21/11:00am 30.8 25.6 5.5 20 13.5 ENE 22 39 12 21 1020.2 - 0.0
21/10:30am 30.7 25.4 6.9 22 13.0 ENE 24 33 13 18 1020.5 - 0.0
21/10:00am 30.0 25.2 7.4 24 12.4 ENE 22 35 12 19 1020.7 - 0.0
21/09:30am 29.1 24.3 7.5 25 11.8 NE 22 33 12 18 1020.7 - 0.0
21/09:00am 28.5 23.1 6.2 24 11.9 NNE 24 32 13 17 1020.8 1018.8 0.0
21/08:30am 27.7 22.8 5.3 24 11.7 NE 20 28 11 15 1020.8 - 0.0
21/08:00am 27.1 21.6 3.9 22 11.8 NE 22 33 12 18 1020.3 - 0.0
21/07:30am 26.1 21.4 2.9 22 11.5 ENE 17 20 9 11 1019.9 - 0.0
21/07:00am 23.7 20.7 4.1 28 9.8 NNE 9 11 5 6 1019.5 - 0.0
21/06:30am 20.1 17.6 5.0 37 7.5 N 7 9 4 5 1019.2 - 0.0
21/06:00am 23.4 20.9 4.8 30 9.4 NNW 7 9 4 5 1018.7 1016.7 0.0
21/05:30am 24.2 20.3 3.4 26 10.3 E 13 19 7 10 1018.1 - 0.0
21/05:00am 23.9 21.4 3.8 27 10.0 ENE 6 9 3 5 1017.8 - 0.0
21/04:30am 25.2 21.9 2.2 22 11.2 E 9 11 5 6 1017.5 - 0.0
21/04:00am 24.6 20.4 1.4 22 11.1 ESE 13 20 7 11 1017.2 - 0.0
21/03:30am 25.3 21.1 -0.6 18 12.0 E 11 15 6 8 1017.0 - 0.0
21/03:00am 25.0 20.1 -0.4 18 11.8 E 15 20 8 11 1017.0 1015.1 0.0
21/02:30am 24.9 20.8 -0.3 19 11.7 E 11 13 6 7 1016.9 - 0.0
21/02:00am 25.4 21.1 0.8 20 11.7 E 13 15 7 8 1016.9 - 0.0
21/01:30am 26.4 21.9 -0.5 17 12.6 E 13 15 7 8 1017.2 - 0.0
21/01:00am 26.9 22.7 -0.6 16 12.9 E 11 13 6 7 1017.5 - 0.0
21/12:30am 26.6 22.6 0.7 18 12.4 E 11 13 6 7 1017.6 - 0.0
21/12:00am 26.3 22.5 1.6 20 12.0 E 11 13 6 7 1017.9 1015.9 0.0
 
Date/Time
EST
Temp
°C
App
Temp
°C
Dew
Point
Rel
Hum
%
Delta-T
°C
Wind Press
QNH
hPa
Press
MSL
hPa
Rain
since 9 am
mm
Dir
 
Spd
km/h
Gust
km/h
Spd
kts
Gust
kts
20/11:30pm 26.9 23.4 1.0 18 12.5 E 9 11 5 6 1018.2 - 0.0
20/11:00pm 24.5 21.3 2.9 24 10.6 ESE 9 11 5 6 1018.2 - 0.0
20/10:30pm 26.9 23.6 2.5 20 12.1 ESE 9 11 5 6 1018.3 - 0.0
20/10:00pm 27.7 24.5 3.1 20 12.4 E 9 11 5 6 1018.2 - 0.0
20/09:30pm 28.9 25.0 1.2 16 13.6 E 11 13 6 7 1018.0 - 0.0
20/09:00pm 29.7 25.2 -0.2 14 14.4 ESE 13 19 7 10 1017.7 1015.7 0.0
20/08:30pm 29.8 24.6 0.1 14 14.4 ESE 17 28 9 15 1017.4 - 0.0
20/08:00pm 29.6 25.3 1.3 16 14.0 ESE 13 19 7 10 1016.9 - 0.0
20/07:30pm 30.5 25.8 0.6 14 14.7 ESE 15 19 8 10 1016.5 - 0.0
20/07:00pm 30.9 26.2 1.2 15 14.8 ESE 15 19 8 10 1016.1 - 0.0
20/06:30pm 31.8 26.9 1.7 14 15.2 ESE 17 28 9 15 1015.7 - 0.0
20/06:00pm 32.7 27.8 1.9 14 15.7 E 17 26 9 14 1015.3 1013.3 0.0
20/05:30pm 33.2 28.0 2.7 14 15.8 ESE 19 30 10 16 1015.1 - 0.0
20/05:00pm 33.3 27.9 1.3 13 16.2 SE 19 28 10 15 1015.2 - 0.0
20/04:30pm 33.8 28.6 2.6 14 16.2 SE 19 24 10 13 1015.2 - 0.0
20/04:00pm 33.7 27.8 1.9 13 16.3 ESE 22 33 12 18 1015.3 - 0.0
20/03:30pm 33.5 28.3 2.2 14 16.1 E 19 33 10 18 1015.5 - 0.0
20/03:00pm 33.3 28.4 1.7 13 16.1 ESE 17 30 9 16 1015.7 1013.7 0.0
20/02:30pm 33.5 27.8 2.6 14 16.0 ESE 22 33 12 18 1016.3 - 0.0
20/02:00pm 33.8 29.1 2.9 14 16.1 ENE 17 26 9 14 1016.7 - 0.0
20/01:30pm 32.8 28.6 4.0 16 15.2 NNE 15 26 8 14 1017.1 - 0.0
20/01:00pm 32.4 27.7 3.4 16 15.1 E 17 35 9 19 1018.0 - 0.0
20/12:30pm 32.1 28.4 4.2 17 14.7 E 13 19 7 10 1018.7 - 0.0
20/12:00pm 31.7 26.9 4.7 18 14.3 NE 19 26 10 14 1019.3 1017.4 0.0
20/11:30am 31.3 26.4 5.2 19 13.9 E 20 32 11 17 1019.5 - 0.0
20/11:00am 31.6 27.2 6.4 20 13.7 NE 19 30 10 16 1020.0 - 0.0
20/10:30am 29.4 24.5 6.9 24 12.2 NE 22 32 12 17 1020.3 - 0.0
20/10:00am 29.7 24.3 6.2 22 12.6 E 24 30 13 16 1020.7 - 0.0
20/09:30am 28.6 23.2 6.4 24 11.9 NE 24 33 13 18 1021.1 - 0.0
20/09:00am 28.0 23.1 6.8 26 11.4 ENE 22 30 12 16 1021.1 1019.1 0.0
20/08:30am 27.1 21.7 6.4 26 11.0 ENE 24 32 13 17 1021.0 - 0.0
20/08:00am 26.1 20.6 5.8 27 10.6 E 24 33 13 18 1020.7 - 0.0
20/07:30am 25.5 20.5 4.8 26 10.6 E 20 30 11 16 1020.3 - 0.0
20/07:00am 24.7 20.2 4.3 26 10.3 E 17 26 9 14 1019.7 - 0.0
20/06:30am 24.2 19.1 4.3 27 10.0 E 20 30 11 16 1019.3 - 0.0
20/06:00am 24.5 26.8 24.5 100 0.0 E 20 30 11 16 1018.8 1016.9 0.0
20/05:30am 24.6 27.6 24.6 100 0.0 E 17 26 9 14 1018.4 - 0.0
20/05:00am 24.9 28.1 24.9 100 0.0 ESE 17 24 9 13 1018.0 - 0.0
20/04:30am 24.6 27.6 24.6 100 0.0 ESE 17 22 9 12 1017.8 - 0.0
20/04:00am 24.5 27.8 24.5 100 0.0 E 15 20 8 11 1017.6 - 0.0
20/03:30am 25.0 28.2 25.0 100 0.0 ESE 17 22 9 12 1017.7 - 0.0
20/03:00am 24.6 28.0 24.6 100 0.0 ESE 15 19 8 10 1017.6 1015.6 0.0
20/02:30am 24.5 27.8 24.5 100 0.0 ESE 15 19 8 10 1017.8 - 0.0
20/02:00am 25.8 30.7 25.8 100 0.0 ESE 11 15 6 8 1017.9 - 0.0
20/01:30am 26.4 31.3 26.4 100 0.0 ESE 13 17 7 9 1017.9 - 0.0
20/01:00am 26.6 32.0 26.6 100 0.0 ESE 11 17 6 9 1018.0 - 0.0
20/12:30am 27.1 32.8 27.1 100 0.0 E 11 15 6 8 1018.1 - 0.0
20/12:00am 27.9 33.5 27.9 100 0.0 E 15 17 8 9 1018.4 1016.4 0.0
 
Date/Time
EST
Temp
°C
App
Temp
°C
Dew
Point
Rel
Hum
%
Delta-T
°C
Wind Press
QNH
hPa
Press
MSL
hPa
Rain
since 9 am
mm
Dir
 
Spd
km/h
Gust
km/h
Spd
kts
Gust
kts
19/11:30pm 28.1 33.4 28.1 100 0.0 E 17 26 9 14 1018.6 - 0.0
19/11:00pm 28.5 34.9 28.5 100 0.0 E 13 17 7 9 1018.6 - 0.0
19/10:30pm 27.9 33.8 27.9 100 0.0 E 13 17 7 9 1018.7 - 0.0
19/10:00pm 28.8 35.4 28.8 100 0.0 ESE 13 15 7 8 1018.5 - 0.0
19/09:30pm 28.9 35.6 28.9 100 0.0 E 13 17 7 9 1018.2 - 0.0
19/09:00pm 27.9 35.0 27.9 100 0.0 ESE 7 11 4 6 1017.9 1015.9 0.0
19/08:30pm 29.6 37.2 29.6 100 0.0 ESE 11 13 6 7 1017.5 - 0.0
19/08:00pm 29.4 36.5 29.4 100 0.0 ESE 13 15 7 8 1017.1 - 0.0
19/07:30pm 30.0 37.5 30.0 100 0.0 ESE 13 19 7 10 1016.8 - 0.0
19/07:00pm 31.1 38.8 31.1 100 0.0 ESE 17 28 9 15 1016.5 - 0.0
19/06:30pm 31.6 39.1 31.6 100 0.0 ESE 20 26 11 14 1016.2 - 0.0
19/06:00pm 32.6 41.5 32.5 99 0.1 E 17 28 9 15 1015.8 1013.8 0.0
19/05:30pm 33.1 42.9 33.0 99 0.1 E 15 24 8 13 1015.5 - 0.0
19/05:00pm 33.4 43.6 33.1 98 0.2 SE 13 26 7 14 1015.3 - 0.0
19/04:30pm 33.5 37.1 24.3 58 6.5 SE 13 19 7 10 1015.3 - 0.0
19/04:00pm 33.2 28.7 1.9 14 16.0 N 15 22 8 12 1015.4 - 0.0
19/03:30pm 33.0 29.8 3.0 15 15.6 S 9 20 5 11 1015.5 - 0.0
19/03:00pm 33.4 29.0 0.3 12 16.5 ESE 13 20 7 11 1015.7 1013.7 0.0
19/02:30pm 33.3 27.1 0.0 12 16.5 E 22 33 12 18 1016.2 - 0.0
19/02:00pm 33.0 26.5 0.5 12 16.2 NE 24 30 13 16 1016.7 - 0.0
19/01:30pm 32.2 25.9 1.8 14 15.4 E 24 33 13 18 1017.1 - 0.0
19/01:00pm 31.7 26.8 1.8 15 15.1 E 17 20 9 11 1017.6 - 0.0
19/12:30pm 32.9 26.9 1.1 13 16.0 E 22 35 12 19 1018.3 - 0.0
19/12:00pm 31.5 26.1 2.5 16 14.8 NNE 20 30 11 16 1018.9 1017.0 0.0
19/11:30am 31.2 26.0 3.3 17 14.4 NE 20 32 11 17 1019.3 - 0.0
19/11:00am 29.9 23.9 3.4 18 13.6 NE 24 32 13 17 1019.7 - 0.0
19/10:30am 29.6 22.9 3.4 19 13.4 NE 28 37 15 20 1020.1 - 0.0
19/10:00am 29.9 23.5 3.4 18 13.6 NE 26 37 14 20 1020.5 - 0.0
19/09:30am 28.7 21.9 3.3 19 12.9 NNE 28 35 15 19 1020.7 - 0.0
19/09:00am 27.8 21.8 3.6 21 12.3 NE 24 32 13 17 1020.8 1018.8 0.0
19/08:30am 26.9 20.5 3.1 21 11.9 NE 26 33 14 18 1020.7 - 0.0
19/08:00am 26.6 21.3 2.9 21 11.8 NE 20 35 11 19 1020.3 - 0.0
19/07:30am 25.6 20.7 1.9 21 11.5 NE 17 26 9 14 1020.2 - 0.0
19/07:00am 23.7 19.8 1.0 22 10.7 N 11 13 6 7 1019.7 - 0.0
19/06:30am 18.8 14.5 0.9 30 8.1 ENE 13 19 7 10 1019.1 - 0.0
19/06:00am 18.8 15.0 1.6 31 7.9 NNE 11 13 6 7 1018.6 1016.6 0.0
19/05:30am 18.0 13.8 -0.9 27 8.2 N 11 13 6 7 1018.0 - 0.0
19/05:00am 18.3 14.9 -0.7 27 8.3 N 7 13 4 7 1017.6 - 0.0
19/04:30am 17.3 13.3 -2.3 26 8.2 NNW 9 13 5 7 1017.2 - 0.0
19/04:00am 14.5 10.5 -5.5 24 7.6 N 7 9 4 5 1017.0 - 0.0
19/03:30am 13.9 10.0 -5.0 26 7.2 NNW 7 7 4 4 1016.9 - 0.0
19/03:00am 14.3 10.6 -5.0 26 7.4 WNW 6 7 3 4 1016.7 1014.8 0.0
19/02:30am 14.1 10.3 -5.5 25 7.4 NNW 6 7 3 4 1016.7 - 0.0
19/02:00am 14.6 12.1 -4.4 26 7.4 CALM 0 0 0 0 1016.7 - 0.0
19/01:30am 14.7 12.1 -4.6 26 7.5 CALM 0 0 0 0 1016.9 - 0.0
19/01:00am 14.8 12.3 -4.4 26 7.5 CALM 0 0 0 0 1016.9 - 0.0
19/12:30am 15.4 12.8 -5.4 23 8.0 CALM 0 0 0 0 1017.0 - 0.0
19/12:00am 16.3 13.8 -3.9 25 8.1 CALM 0 0 0 0 1017.4 1015.4 0.0
 
Date/Time
EST
Temp
°C
App
Temp
°C
Dew
Point
Rel
Hum
%
Delta-T
°C
Wind Press
QNH
hPa
Press
MSL
hPa
Rain
since 9 am
mm
Dir
 
Spd
km/h
Gust
km/h
Spd
kts
Gust
kts
18/11:30pm 16.9 14.3 -4.9 22 8.6 CALM 0 0 0 0 1017.6 - 0.0
18/11:00pm 19.3 16.7 -5.0 19 9.8 CALM 0 0 0 0 1017.7 - 0.0
18/10:30pm 22.8 19.4 -2.1 19 11.0 S 6 7 3 4 1017.7 - 0.0
18/10:00pm 20.9 18.2 -5.9 16 10.8 CALM 0 0 0 0 1017.6 - 0.0
18/09:30pm 18.6 16.0 -4.7 20 9.4 CALM 0 4 0 2 1017.4 - 0.0
18/09:00pm 19.7 16.0 -4.5 19 9.9 S 6 7 3 4 1017.1 1015.2 0.0
18/08:30pm 20.8 16.9 -4.2 18 10.4 ESE 7 7 4 4 1017.0 - 0.0

Other Formats:

Comma delimited format used in spreadsheet applications
http://www.bom.gov.au/fwo/IDQ60801/IDQ60801.94332.axf

JavaScript Object Notation format (JSON) in row-major order
http://www.bom.gov.au/fwo/IDQ60801/IDQ60801.94332.json